createdAt,value
2017-12-19T00:00:32.693Z,0
2017-12-19T00:01:40.777Z,0
2017-12-19T00:02:48.864Z,0
2017-12-19T00:03:56.950Z,0
2017-12-19T00:05:05.037Z,0
2017-12-19T00:06:13.129Z,0
2017-12-19T00:07:21.228Z,0
2017-12-19T00:08:29.310Z,0
2017-12-19T00:09:37.407Z,0
2017-12-19T00:10:45.475Z,0
2017-12-19T00:11:53.560Z,0
2017-12-19T00:13:01.647Z,0
2017-12-19T00:14:09.733Z,0
2017-12-19T00:15:17.820Z,0
2017-12-19T00:16:25.907Z,0
2017-12-19T00:17:34.062Z,0
2017-12-19T00:18:42.150Z,0
2017-12-19T00:19:50.242Z,0
2017-12-19T00:20:58.324Z,0
2017-12-19T00:22:06.409Z,0
2017-12-19T00:23:14.498Z,0
2017-12-19T00:24:22.585Z,0
2017-12-19T00:25:30.673Z,0
2017-12-19T00:26:38.758Z,0
2017-12-19T00:27:46.841Z,0
2017-12-19T00:28:54.929Z,0
2017-12-19T00:30:03.027Z,0
2017-12-19T00:31:11.117Z,0
2017-12-19T00:32:19.204Z,0
2017-12-19T00:33:27.294Z,0
2017-12-19T00:34:35.376Z,0
2017-12-19T00:35:43.463Z,0
2017-12-19T00:36:51.560Z,0
2017-12-19T00:37:59.649Z,0
2017-12-19T00:39:07.739Z,0
2017-12-19T00:40:15.827Z,0
2017-12-19T00:41:23.918Z,0
2017-12-19T00:42:32.002Z,0
2017-12-19T00:43:40.089Z,0
2017-12-19T00:44:48.179Z,0
2017-12-19T00:45:56.264Z,0
2017-12-19T00:47:04.366Z,0
2017-12-19T00:48:12.467Z,0
2017-12-19T00:49:20.537Z,0
2017-12-19T00:50:28.740Z,0
2017-12-19T00:51:36.714Z,0
2017-12-19T00:52:44.799Z,0
2017-12-19T00:53:52.887Z,0
2017-12-19T00:55:00.971Z,0
2017-12-19T00:56:09.060Z,0
2017-12-19T00:57:17.150Z,0
2017-12-19T00:58:25.234Z,0
2017-12-19T00:59:33.320Z,0
2017-12-19T01:00:41.409Z,0
2017-12-19T01:01:49.500Z,0
2017-12-19T01:02:57.583Z,0
2017-12-19T01:04:05.668Z,0
2017-12-19T01:05:13.755Z,0
2017-12-19T01:06:21.841Z,0
2017-12-19T01:07:29.986Z,0
2017-12-19T01:08:38.017Z,0
2017-12-19T01:09:46.104Z,0
2017-12-19T01:10:54.192Z,0
2017-12-19T01:12:02.281Z,0
2017-12-19T01:13:10.374Z,0
2017-12-19T01:14:18.452Z,0
2017-12-19T01:15:26.546Z,0
2017-12-19T01:16:34.629Z,0
2017-12-19T01:17:42.716Z,0
2017-12-19T01:18:50.805Z,0
2017-12-19T01:19:58.889Z,0
2017-12-19T01:21:06.979Z,0
2017-12-19T01:22:15.064Z,0
2017-12-19T01:23:23.150Z,0
2017-12-19T01:24:31.237Z,0
2017-12-19T01:25:39.334Z,0
2017-12-19T01:26:47.417Z,0
2017-12-19T01:27:55.504Z,0
2017-12-19T01:29:03.616Z,0
2017-12-19T01:30:11.682Z,0
2017-12-19T01:31:19.766Z,0
2017-12-19T01:32:27.863Z,0
2017-12-19T01:33:35.947Z,0
2017-12-19T01:34:44.028Z,0
2017-12-19T01:35:52.118Z,0
2017-12-19T01:37:00.206Z,0
2017-12-19T01:38:08.286Z,0
2017-12-19T01:39:16.394Z,0
2017-12-19T01:40:24.483Z,0
2017-12-19T01:41:32.612Z,0
2017-12-19T01:42:40.702Z,0
2017-12-19T01:43:48.788Z,0
2017-12-19T01:44:56.874Z,0
2017-12-19T01:46:04.970Z,0
2017-12-19T01:47:13.058Z,0
2017-12-19T01:48:21.146Z,0
2017-12-19T01:49:29.231Z,0
2017-12-19T01:50:37.320Z,0
2017-12-19T01:51:45.409Z,0
2017-12-19T01:52:53.493Z,0
2017-12-19T01:54:01.585Z,0
2017-12-19T01:55:09.673Z,0
2017-12-19T01:56:17.754Z,0
2017-12-19T01:57:25.841Z,0
2017-12-19T01:58:33.928Z,0
2017-12-19T01:59:42.103Z,0
2017-12-19T02:00:50.192Z,0
2017-12-19T02:01:58.272Z,0
2017-12-19T02:03:06.361Z,0
2017-12-19T02:04:14.448Z,0
2017-12-19T02:05:22.532Z,0
2017-12-19T02:06:30.621Z,0
2017-12-19T02:07:38.708Z,0
2017-12-19T02:08:46.794Z,0
2017-12-19T02:09:54.882Z,0
2017-12-19T02:11:02.970Z,0
2017-12-19T02:12:11.061Z,0
2017-12-19T02:13:19.146Z,0
2017-12-19T02:14:27.231Z,0
2017-12-19T02:15:35.327Z,0
2017-12-19T02:16:43.405Z,0
2017-12-19T02:17:51.493Z,0
2017-12-19T02:18:59.586Z,0
2017-12-19T02:20:07.675Z,0
2017-12-19T02:21:15.772Z,0
2017-12-19T02:22:23.854Z,0
2017-12-19T02:23:31.942Z,0
2017-12-19T02:24:40.031Z,0
2017-12-19T02:25:48.117Z,0
2017-12-19T02:26:56.205Z,0
2017-12-19T02:28:04.291Z,0
2017-12-19T02:29:12.382Z,0
2017-12-19T02:30:20.466Z,0
2017-12-19T02:31:28.551Z,0
2017-12-19T02:32:36.650Z,0
2017-12-19T02:33:44.727Z,0
2017-12-19T02:34:52.819Z,0
2017-12-19T02:36:00.908Z,0
2017-12-19T02:37:08.995Z,0
2017-12-19T02:38:17.082Z,0
2017-12-19T02:39:25.187Z,0
2017-12-19T02:40:33.281Z,0
2017-12-19T02:41:41.349Z,0
2017-12-19T02:42:49.430Z,0
2017-12-19T02:43:57.521Z,0
2017-12-19T02:45:05.630Z,0
2017-12-19T02:46:13.697Z,0
2017-12-19T02:47:21.793Z,0
2017-12-19T02:48:29.874Z,0
2017-12-19T02:49:37.962Z,0
2017-12-19T02:50:46.047Z,0
2017-12-19T02:51:54.139Z,0
2017-12-19T02:53:02.242Z,0
2017-12-19T02:54:10.312Z,0
2017-12-19T02:55:18.400Z,0
2017-12-19T02:56:26.491Z,0
2017-12-19T02:57:34.572Z,0
2017-12-19T02:58:42.661Z,0
2017-12-19T02:59:50.747Z,0
2017-12-19T03:00:58.835Z,0
2017-12-19T03:02:06.925Z,0
2017-12-19T03:03:15.014Z,0
2017-12-19T03:04:23.099Z,0
2017-12-19T03:05:31.215Z,0
2017-12-19T03:06:39.284Z,0
2017-12-19T03:07:47.380Z,0
2017-12-19T03:08:55.456Z,0
2017-12-19T03:10:03.551Z,0
2017-12-19T03:11:11.637Z,0
2017-12-19T03:12:19.722Z,0
2017-12-19T03:13:27.807Z,0
2017-12-19T03:14:35.896Z,0
2017-12-19T03:15:43.984Z,0
2017-12-19T03:16:52.069Z,0
2017-12-19T03:18:00.173Z,0
2017-12-19T03:19:08.257Z,0
2017-12-19T03:20:16.344Z,0
2017-12-19T03:21:24.444Z,0
2017-12-19T03:22:32.516Z,0
2017-12-19T03:23:40.606Z,0
2017-12-19T03:24:48.692Z,0
2017-12-19T03:25:56.777Z,0
2017-12-19T03:27:04.863Z,0
2017-12-19T03:28:12.956Z,0
2017-12-19T03:29:21.046Z,0
2017-12-19T03:30:29.125Z,0
2017-12-19T03:31:37.217Z,0
2017-12-19T03:32:45.297Z,0
2017-12-19T03:33:53.385Z,0
2017-12-19T03:35:01.468Z,0
2017-12-19T03:36:09.560Z,0
2017-12-19T03:37:17.654Z,0
2017-12-19T03:38:25.733Z,0
2017-12-19T03:39:33.822Z,0
2017-12-19T03:40:41.907Z,0
2017-12-19T03:41:50.051Z,0
2017-12-19T03:42:58.078Z,0
2017-12-19T03:44:06.185Z,0
2017-12-19T03:45:14.260Z,0
2017-12-19T03:46:22.352Z,0
2017-12-19T03:47:30.440Z,0
2017-12-19T03:48:38.514Z,0
2017-12-19T03:49:46.602Z,0
2017-12-19T03:50:54.739Z,0
2017-12-19T03:52:02.822Z,0
2017-12-19T03:53:10.905Z,0
2017-12-19T03:54:18.994Z,0
2017-12-19T03:55:27.079Z,0
2017-12-19T03:56:35.176Z,0
2017-12-19T03:57:43.254Z,0
2017-12-19T03:58:51.342Z,0
2017-12-19T03:59:59.426Z,0
2017-12-19T04:01:07.518Z,0
2017-12-19T04:02:15.609Z,0
2017-12-19T04:03:23.698Z,0
2017-12-19T04:04:31.784Z,0
2017-12-19T04:05:39.873Z,0
2017-12-19T04:06:47.963Z,0
2017-12-19T04:07:56.046Z,0
2017-12-19T04:09:04.132Z,0
2017-12-19T04:10:12.220Z,0
2017-12-19T04:11:20.304Z,0
2017-12-19T04:12:28.399Z,0
2017-12-19T04:13:36.479Z,0
2017-12-19T04:14:44.566Z,0
2017-12-19T04:15:52.651Z,0
2017-12-19T04:17:00.738Z,0
2017-12-19T04:18:08.835Z,0
2017-12-19T04:19:16.919Z,0
2017-12-19T04:20:25.006Z,0
2017-12-19T04:21:33.093Z,0
2017-12-19T04:22:41.199Z,0
2017-12-19T04:23:49.294Z,0
2017-12-19T04:24:57.375Z,0
2017-12-19T04:26:05.467Z,0
2017-12-19T04:27:13.548Z,0
2017-12-19T04:28:21.637Z,0
2017-12-19T04:29:29.721Z,0
2017-12-19T04:30:37.806Z,0
2017-12-19T04:31:45.894Z,0
2017-12-19T04:32:53.983Z,0
2017-12-19T04:34:02.067Z,0
2017-12-19T04:35:10.152Z,0
2017-12-19T04:36:18.240Z,0
2017-12-19T04:37:26.331Z,0
2017-12-19T04:38:34.413Z,0
2017-12-19T04:39:42.498Z,0
2017-12-19T04:40:50.586Z,0
2017-12-19T04:41:58.692Z,0
2017-12-19T04:43:06.757Z,0
2017-12-19T04:44:14.843Z,0
2017-12-19T04:45:22.930Z,0
2017-12-19T04:46:31.017Z,0
2017-12-19T04:47:39.104Z,0
2017-12-19T04:48:47.207Z,0
2017-12-19T04:49:55.276Z,0
2017-12-19T04:51:03.362Z,0
2017-12-19T04:52:11.453Z,0
2017-12-19T04:53:19.652Z,0
2017-12-19T04:54:27.934Z,0
2017-12-19T04:55:36.020Z,0
2017-12-19T04:56:44.107Z,0
2017-12-19T04:57:52.194Z,0
2017-12-19T04:59:00.280Z,0
2017-12-19T05:00:08.363Z,0
2017-12-19T05:01:16.461Z,0
2017-12-19T05:02:24.549Z,0
2017-12-19T05:03:32.634Z,0
2017-12-19T05:04:40.723Z,0
2017-12-19T05:05:48.814Z,0
2017-12-19T05:06:56.898Z,0
2017-12-19T05:08:04.982Z,0
2017-12-19T05:09:13.072Z,0
2017-12-19T05:10:21.163Z,24
2017-12-19T05:11:29.245Z,0
2017-12-19T05:12:37.334Z,0
2017-12-19T05:13:45.414Z,0
2017-12-19T05:14:53.499Z,0
2017-12-19T05:16:01.620Z,0
2017-12-19T05:17:09.706Z,0
2017-12-19T05:18:17.792Z,0
2017-12-19T05:19:25.878Z,0
2017-12-19T05:20:33.981Z,0
2017-12-19T05:21:42.057Z,0
2017-12-19T05:22:50.147Z,0
2017-12-19T05:23:58.228Z,0
2017-12-19T05:25:06.319Z,0
2017-12-19T05:26:14.409Z,0
2017-12-19T05:27:22.503Z,0
2017-12-19T05:28:30.590Z,0
2017-12-19T05:29:38.679Z,0
2017-12-19T05:30:46.763Z,0
2017-12-19T05:31:54.851Z,0
2017-12-19T05:33:02.934Z,0
2017-12-19T05:34:11.020Z,0
2017-12-19T05:35:19.108Z,0
2017-12-19T05:36:27.200Z,0
2017-12-19T05:37:35.282Z,0
2017-12-19T05:38:43.363Z,0
2017-12-19T05:39:51.784Z,0
2017-12-19T05:40:59.534Z,0
2017-12-19T05:42:07.625Z,0
2017-12-19T05:43:15.707Z,0
2017-12-19T05:44:23.841Z,0
2017-12-19T05:45:32.080Z,0
2017-12-19T05:46:40.011Z,0
2017-12-19T05:47:48.100Z,0
2017-12-19T05:48:56.193Z,0
2017-12-19T05:50:04.273Z,0
2017-12-19T05:51:12.551Z,0
2017-12-19T05:52:20.467Z,0
2017-12-19T05:53:28.564Z,0
2017-12-19T05:54:37.146Z,0
2017-12-19T05:55:44.715Z,0
2017-12-19T05:56:52.814Z,0
2017-12-19T05:58:00.898Z,0
2017-12-19T05:59:08.984Z,0
2017-12-19T06:00:17.078Z,0
2017-12-19T06:01:25.154Z,0
2017-12-19T06:02:33.253Z,0
2017-12-19T06:03:41.340Z,0
2017-12-19T06:04:49.431Z,0
2017-12-19T06:05:57.508Z,0
2017-12-19T06:07:05.592Z,0
2017-12-19T06:08:13.708Z,0
2017-12-19T06:09:21.763Z,0
2017-12-19T06:10:31.013Z,0
2017-12-19T06:11:39.060Z,0
2017-12-19T06:12:47.146Z,0
2017-12-19T06:13:55.236Z,0
2017-12-19T06:15:03.559Z,0
2017-12-19T06:16:11.403Z,0
2017-12-19T06:17:19.486Z,0
2017-12-19T06:18:27.575Z,0
2017-12-19T06:19:35.658Z,0
2017-12-19T06:20:44.198Z,0
2017-12-19T06:21:51.831Z,0
2017-12-19T06:22:59.918Z,0
2017-12-19T06:24:08.001Z,0
2017-12-19T06:25:16.088Z,0
2017-12-19T06:26:24.382Z,0
2017-12-19T06:27:32.261Z,0
2017-12-19T06:28:40.343Z,0
2017-12-19T06:29:48.438Z,0
2017-12-19T06:30:56.516Z,0
2017-12-19T06:32:04.608Z,0
2017-12-19T06:33:12.687Z,0
2017-12-19T06:34:20.775Z,0
2017-12-19T06:35:28.860Z,0
2017-12-19T06:36:36.944Z,0
2017-12-19T06:37:45.033Z,0
2017-12-19T06:38:53.136Z,0
2017-12-19T06:40:01.276Z,0
2017-12-19T06:41:09.295Z,0
2017-12-19T06:42:17.386Z,0
2017-12-19T06:43:25.622Z,0
2017-12-19T06:44:33.572Z,0
2017-12-19T06:45:41.706Z,0
2017-12-19T06:46:49.755Z,0
2017-12-19T06:47:57.839Z,0
2017-12-19T06:49:05.924Z,0
2017-12-19T06:50:14.011Z,0
2017-12-19T06:51:22.096Z,0
2017-12-19T06:52:30.185Z,0
2017-12-19T06:53:38.268Z,0
2017-12-19T06:54:46.424Z,0
2017-12-19T06:55:54.515Z,0
2017-12-19T06:57:02.600Z,0
2017-12-19T06:58:10.686Z,0
2017-12-19T06:59:18.780Z,0
2017-12-19T07:00:26.856Z,0
2017-12-19T07:01:34.942Z,0
2017-12-19T07:02:43.029Z,0
2017-12-19T07:03:51.117Z,0
2017-12-19T07:04:59.207Z,0
2017-12-19T07:06:07.280Z,0
2017-12-19T07:07:15.376Z,0
2017-12-19T07:08:23.457Z,0
2017-12-19T07:09:31.546Z,0
2017-12-19T07:10:39.630Z,0
2017-12-19T07:11:47.712Z,0
2017-12-19T07:12:55.800Z,0
2017-12-19T07:14:03.896Z,0
2017-12-19T07:15:11.985Z,0
2017-12-19T07:16:20.153Z,0
2017-12-19T07:17:28.194Z,0
2017-12-19T07:18:36.272Z,0
2017-12-19T07:19:44.357Z,0
2017-12-19T07:20:52.463Z,0
2017-12-19T07:22:00.636Z,0
2017-12-19T07:23:08.624Z,0
2017-12-19T07:24:16.701Z,0
2017-12-19T07:25:24.787Z,0
2017-12-19T07:26:32.872Z,0
2017-12-19T07:27:40.960Z,0
2017-12-19T07:28:49.046Z,4
2017-12-19T07:29:57.133Z,4
2017-12-19T07:31:05.221Z,4
2017-12-19T07:32:13.345Z,0
2017-12-19T07:33:21.399Z,0
2017-12-19T07:34:29.741Z,0
2017-12-19T07:35:37.821Z,0
2017-12-19T07:36:45.907Z,0
2017-12-19T07:37:53.997Z,0
2017-12-19T07:39:02.084Z,4
2017-12-19T07:40:10.171Z,4
2017-12-19T07:41:18.286Z,4
2017-12-19T07:42:26.375Z,0
2017-12-19T07:43:34.465Z,4
2017-12-19T07:44:42.548Z,4
2017-12-19T07:45:50.632Z,4
2017-12-19T07:46:58.721Z,4
2017-12-19T07:48:06.804Z,4
2017-12-19T07:49:14.890Z,4
2017-12-19T07:50:22.976Z,4
2017-12-19T07:51:31.075Z,4
2017-12-19T07:52:39.148Z,4
2017-12-19T07:53:47.234Z,4
2017-12-19T07:54:55.331Z,4
2017-12-19T07:56:03.411Z,8
2017-12-19T07:57:11.494Z,8
2017-12-19T07:58:19.576Z,8
2017-12-19T07:59:27.678Z,8
2017-12-19T08:00:35.751Z,8
2017-12-19T08:01:43.835Z,8
2017-12-19T08:02:51.925Z,8
2017-12-19T08:04:00.008Z,8
2017-12-19T08:05:08.094Z,8
2017-12-19T08:06:16.181Z,8
2017-12-19T08:07:24.293Z,8
2017-12-19T08:08:32.360Z,8
2017-12-19T08:09:40.452Z,12
2017-12-19T08:10:48.536Z,8
2017-12-19T08:11:56.619Z,12
2017-12-19T08:13:04.705Z,8
2017-12-19T08:14:12.799Z,12
2017-12-19T08:15:20.878Z,12
2017-12-19T08:16:28.966Z,12
2017-12-19T08:17:37.048Z,12
2017-12-19T08:18:45.135Z,16
2017-12-19T08:19:53.229Z,16
2017-12-19T08:21:01.316Z,20
2017-12-19T08:22:09.396Z,16
2017-12-19T08:23:17.482Z,20
2017-12-19T08:24:25.570Z,16
2017-12-19T08:25:33.661Z,20
2017-12-19T08:26:41.741Z,20
2017-12-19T08:27:49.826Z,20
2017-12-19T08:28:57.918Z,20
2017-12-19T08:30:06.018Z,20
2017-12-19T08:31:14.096Z,20
2017-12-19T08:32:22.183Z,20
2017-12-19T08:33:30.275Z,24
2017-12-19T08:34:38.356Z,24
2017-12-19T08:35:46.440Z,20
2017-12-19T08:36:54.530Z,24
2017-12-19T08:38:02.612Z,20
2017-12-19T08:39:10.699Z,20
2017-12-19T08:40:18.785Z,24
2017-12-19T08:41:26.874Z,24
2017-12-19T08:42:34.959Z,24
2017-12-19T08:43:43.073Z,28
2017-12-19T08:44:51.128Z,28
2017-12-19T08:45:59.219Z,28
2017-12-19T08:47:07.301Z,28
2017-12-19T08:48:15.390Z,32
2017-12-19T08:49:23.476Z,32
2017-12-19T08:50:31.582Z,36
2017-12-19T08:51:39.668Z,40
2017-12-19T08:52:47.747Z,36
2017-12-19T08:53:55.839Z,36
2017-12-19T08:55:03.923Z,32
2017-12-19T08:56:12.010Z,36
2017-12-19T08:57:20.095Z,36
2017-12-19T08:58:28.204Z,36
2017-12-19T08:59:36.271Z,36
2017-12-19T09:00:44.363Z,36
2017-12-19T09:01:52.550Z,32
2017-12-19T09:03:00.552Z,28
2017-12-19T09:04:08.621Z,28
2017-12-19T09:05:16.707Z,24
2017-12-19T09:06:24.795Z,24
2017-12-19T09:07:32.879Z,24
2017-12-19T09:08:40.966Z,20
2017-12-19T09:09:49.050Z,20
2017-12-19T09:10:57.168Z,20
2017-12-19T09:12:05.268Z,20
2017-12-19T09:13:13.338Z,20
2017-12-19T09:14:21.425Z,20
2017-12-19T09:15:29.518Z,24
2017-12-19T09:16:37.599Z,20
2017-12-19T09:17:45.685Z,20
2017-12-19T09:18:53.772Z,20
2017-12-19T09:20:01.858Z,24
2017-12-19T09:21:09.945Z,24
2017-12-19T09:22:18.032Z,28
2017-12-19T09:23:26.118Z,24
2017-12-19T09:24:34.205Z,28
2017-12-19T09:25:42.357Z,32
2017-12-19T09:26:50.387Z,32
2017-12-19T09:27:58.472Z,28
2017-12-19T09:29:06.563Z,28
2017-12-19T09:30:14.725Z,24
2017-12-19T09:31:22.746Z,28
2017-12-19T09:32:30.819Z,28
2017-12-19T09:33:38.900Z,28
2017-12-19T09:34:46.986Z,28
2017-12-19T09:35:55.079Z,32
2017-12-19T09:37:03.172Z,28
2017-12-19T09:38:11.250Z,28
2017-12-19T09:39:19.338Z,28
2017-12-19T09:40:27.424Z,32
2017-12-19T09:41:35.540Z,28
2017-12-19T09:42:44.059Z,28
2017-12-19T09:43:52.146Z,28
2017-12-19T09:45:00.233Z,32
2017-12-19T09:46:08.320Z,32
2017-12-19T09:47:16.443Z,32
2017-12-19T09:48:24.494Z,32
2017-12-19T09:49:32.585Z,32
2017-12-19T09:50:40.682Z,32
2017-12-19T09:51:48.752Z,32
2017-12-19T09:52:56.838Z,32
2017-12-19T09:54:04.924Z,32
2017-12-19T09:55:13.012Z,32
2017-12-19T09:56:21.110Z,32
2017-12-19T09:57:29.187Z,36
2017-12-19T09:58:37.277Z,32
2017-12-19T09:59:45.370Z,32
2017-12-19T10:00:53.447Z,36
2017-12-19T10:02:01.531Z,36
2017-12-19T10:03:09.621Z,36
2017-12-19T10:04:17.705Z,36
2017-12-19T10:05:25.792Z,36
2017-12-19T10:06:33.889Z,32
2017-12-19T10:07:41.963Z,32
2017-12-19T10:08:50.050Z,32
2017-12-19T10:09:58.427Z,32
2017-12-19T10:11:06.393Z,28
2017-12-19T10:12:14.479Z,32
2017-12-19T10:13:22.557Z,28
2017-12-19T10:14:30.650Z,28
2017-12-19T10:15:38.730Z,28
2017-12-19T10:16:46.819Z,28
2017-12-19T10:17:54.913Z,32
2017-12-19T10:19:02.991Z,36
2017-12-19T10:20:11.089Z,40
2017-12-19T10:21:19.183Z,36
2017-12-19T10:22:27.267Z,40
2017-12-19T10:23:35.354Z,40
2017-12-19T10:24:43.439Z,40
2017-12-19T10:25:51.521Z,40
2017-12-19T10:26:59.608Z,36
2017-12-19T10:28:07.693Z,36
2017-12-19T10:29:15.778Z,36
2017-12-19T10:30:23.865Z,36
2017-12-19T10:31:31.962Z,36
2017-12-19T10:32:40.041Z,36
2017-12-19T10:33:48.131Z,36
2017-12-19T10:34:56.222Z,36
2017-12-19T10:36:04.300Z,40
2017-12-19T10:37:12.397Z,36
2017-12-19T10:38:20.474Z,36
2017-12-19T10:39:28.566Z,40
2017-12-19T10:40:36.660Z,36
2017-12-19T10:41:44.731Z,40
2017-12-19T10:42:52.819Z,36
2017-12-19T10:44:00.904Z,36
2017-12-19T10:45:08.992Z,36
2017-12-19T10:46:17.079Z,40
2017-12-19T10:47:25.166Z,36
2017-12-19T10:48:33.256Z,36
2017-12-19T10:49:41.341Z,40
2017-12-19T10:50:49.425Z,40
2017-12-19T10:51:57.517Z,40
2017-12-19T10:53:05.596Z,40
2017-12-19T10:54:13.699Z,40
2017-12-19T10:55:21.779Z,40
2017-12-19T10:56:29.863Z,40
2017-12-19T10:57:37.949Z,40
2017-12-19T10:58:46.095Z,36
2017-12-19T10:59:54.124Z,36
2017-12-19T11:01:02.490Z,40
2017-12-19T11:02:10.577Z,40
2017-12-19T11:03:18.664Z,40
2017-12-19T11:04:26.750Z,40
2017-12-19T11:05:34.840Z,40
2017-12-19T11:06:42.931Z,44
2017-12-19T11:07:51.010Z,44
2017-12-19T11:08:59.098Z,40
2017-12-19T11:10:07.199Z,40
2017-12-19T11:11:15.274Z,40
2017-12-19T11:12:23.376Z,40
2017-12-19T11:13:31.464Z,44
2017-12-19T11:14:39.553Z,44
2017-12-19T11:15:47.733Z,44
2017-12-19T11:16:55.731Z,44
2017-12-19T11:18:03.816Z,44
2017-12-19T11:19:11.917Z,48
2017-12-19T11:20:19.989Z,44
2017-12-19T11:21:28.077Z,48
2017-12-19T11:22:36.169Z,48
2017-12-19T11:23:44.247Z,44
2017-12-19T11:24:52.696Z,44
2017-12-19T11:26:00.429Z,48
2017-12-19T11:27:08.559Z,48
2017-12-19T11:28:16.605Z,52
2017-12-19T11:29:24.691Z,52
2017-12-19T11:30:32.786Z,48
2017-12-19T11:31:40.877Z,48
2017-12-19T11:32:48.956Z,48
2017-12-19T11:33:57.044Z,48
2017-12-19T11:35:05.132Z,48
2017-12-19T11:36:13.232Z,48
2017-12-19T11:37:21.315Z,48
2017-12-19T11:38:29.405Z,48
2017-12-19T11:39:37.489Z,44
2017-12-19T11:40:45.576Z,44
2017-12-19T11:41:53.661Z,40
2017-12-19T11:43:01.774Z,44
2017-12-19T11:44:09.837Z,44
2017-12-19T11:45:17.927Z,44
2017-12-19T11:46:26.015Z,44
2017-12-19T11:47:34.111Z,40
2017-12-19T11:48:42.201Z,44
2017-12-19T11:49:50.292Z,40
2017-12-19T11:50:58.372Z,40
2017-12-19T11:52:06.457Z,40
2017-12-19T11:53:14.544Z,40
2017-12-19T11:54:22.631Z,40
2017-12-19T11:55:30.717Z,40
2017-12-19T11:56:38.801Z,40
2017-12-19T11:57:46.889Z,40
2017-12-19T11:58:54.976Z,44
2017-12-19T12:00:03.060Z,44
2017-12-19T12:01:11.146Z,40
2017-12-19T12:02:19.230Z,44
2017-12-19T12:03:27.318Z,40
2017-12-19T12:04:35.406Z,40
2017-12-19T12:05:43.493Z,40
2017-12-19T12:06:51.581Z,40
2017-12-19T12:07:59.666Z,40
2017-12-19T12:09:07.752Z,44
2017-12-19T12:10:15.839Z,44
2017-12-19T12:11:23.922Z,44
2017-12-19T12:12:32.008Z,44
2017-12-19T12:13:40.112Z,44
2017-12-19T12:14:48.181Z,44
2017-12-19T12:15:56.270Z,44
2017-12-19T12:17:04.354Z,40
2017-12-19T12:18:12.460Z,44
2017-12-19T12:19:20.581Z,44
2017-12-19T12:20:28.610Z,40
2017-12-19T12:21:36.699Z,40
2017-12-19T12:22:44.785Z,44
2017-12-19T12:23:52.871Z,40
2017-12-19T12:25:00.960Z,40
2017-12-19T12:26:09.042Z,40
2017-12-19T12:27:17.133Z,40
2017-12-19T12:28:25.215Z,36
2017-12-19T12:29:33.307Z,40
2017-12-19T12:30:41.389Z,36
2017-12-19T12:31:49.474Z,36
2017-12-19T12:32:57.561Z,36
2017-12-19T12:34:05.665Z,40
2017-12-19T12:35:13.738Z,36
2017-12-19T12:36:21.818Z,36
2017-12-19T12:37:29.904Z,36
2017-12-19T12:38:37.997Z,36
2017-12-19T12:39:46.087Z,36
2017-12-19T12:40:54.160Z,32
2017-12-19T12:42:02.252Z,32
2017-12-19T12:43:10.336Z,32
2017-12-19T12:44:18.425Z,32
2017-12-19T12:45:26.505Z,32
2017-12-19T12:46:34.592Z,32
2017-12-19T12:47:42.679Z,28
2017-12-19T12:48:50.816Z,32
2017-12-19T12:49:58.851Z,28
2017-12-19T12:51:06.934Z,32
2017-12-19T12:52:15.021Z,28
2017-12-19T12:53:23.106Z,28
2017-12-19T12:54:31.200Z,32
2017-12-19T12:55:39.284Z,28
2017-12-19T12:56:47.371Z,28
2017-12-19T12:57:55.475Z,28
2017-12-19T12:59:03.540Z,28
2017-12-19T13:00:11.626Z,28
2017-12-19T13:01:19.707Z,28
2017-12-19T13:02:27.794Z,28
2017-12-19T13:03:35.897Z,28
2017-12-19T13:04:43.974Z,28
2017-12-19T13:05:52.052Z,28
2017-12-19T13:07:00.136Z,28
2017-12-19T13:08:08.221Z,28
2017-12-19T13:09:16.310Z,28
2017-12-19T13:10:24.393Z,32
2017-12-19T13:11:32.712Z,28
2017-12-19T13:12:40.584Z,32
2017-12-19T13:13:48.648Z,32
2017-12-19T13:14:56.742Z,28
2017-12-19T13:16:04.823Z,28
2017-12-19T13:17:12.907Z,28
2017-12-19T13:18:20.994Z,28
2017-12-19T13:19:29.086Z,28
2017-12-19T13:20:37.167Z,28
2017-12-19T13:21:45.252Z,28
2017-12-19T13:22:53.355Z,24
2017-12-19T13:24:01.423Z,24
2017-12-19T13:25:09.513Z,28
2017-12-19T13:26:17.592Z,24
2017-12-19T13:27:25.697Z,24
2017-12-19T13:28:33.767Z,28
2017-12-19T13:29:41.854Z,24
2017-12-19T13:30:49.936Z,24
2017-12-19T13:31:58.043Z,24
2017-12-19T13:33:06.138Z,24
2017-12-19T13:34:14.229Z,24
2017-12-19T13:35:22.311Z,20
2017-12-19T13:36:30.396Z,24
2017-12-19T13:37:38.480Z,20
2017-12-19T13:38:46.593Z,20
2017-12-19T13:39:54.654Z,20
2017-12-19T13:41:02.744Z,20
2017-12-19T13:42:10.823Z,20
2017-12-19T13:43:18.908Z,20
2017-12-19T13:44:26.991Z,24
2017-12-19T13:45:35.079Z,24
2017-12-19T13:46:43.166Z,20
2017-12-19T13:47:51.252Z,20
2017-12-19T13:48:59.336Z,20
2017-12-19T13:50:07.421Z,16
2017-12-19T13:51:15.567Z,20
2017-12-19T13:52:23.797Z,16
2017-12-19T13:53:31.879Z,20
2017-12-19T13:54:39.965Z,16
2017-12-19T13:55:48.048Z,16
2017-12-19T13:56:56.134Z,16
2017-12-19T13:58:04.229Z,16
2017-12-19T13:59:12.309Z,16
2017-12-19T14:00:20.390Z,16
2017-12-19T14:01:28.475Z,16
2017-12-19T14:02:36.563Z,16
2017-12-19T14:03:44.647Z,16
2017-12-19T14:04:52.739Z,12
2017-12-19T14:06:00.816Z,16
2017-12-19T14:07:08.898Z,12
2017-12-19T14:08:16.986Z,12
2017-12-19T14:09:25.080Z,12
2017-12-19T14:10:33.185Z,12
2017-12-19T14:11:41.293Z,12
2017-12-19T14:12:49.364Z,12
2017-12-19T14:13:57.446Z,12
2017-12-19T14:15:05.534Z,12
2017-12-19T14:16:13.628Z,12
2017-12-19T14:17:21.720Z,12
2017-12-19T14:18:29.806Z,12
2017-12-19T14:19:37.891Z,12
2017-12-19T14:20:45.986Z,8
2017-12-19T14:21:54.073Z,12
2017-12-19T14:23:02.159Z,12
2017-12-19T14:24:10.251Z,8
2017-12-19T14:25:18.331Z,8
2017-12-19T14:26:26.412Z,12
2017-12-19T14:27:34.504Z,8
2017-12-19T14:28:42.586Z,8
2017-12-19T14:29:50.665Z,8
2017-12-19T14:30:58.753Z,8
2017-12-19T14:32:06.844Z,8
2017-12-19T14:33:14.924Z,8
2017-12-19T14:34:23.005Z,8
2017-12-19T14:35:31.092Z,8
2017-12-19T14:36:39.179Z,8
2017-12-19T14:37:47.264Z,4
2017-12-19T14:38:55.362Z,8
2017-12-19T14:40:03.425Z,8
2017-12-19T14:41:11.519Z,8
2017-12-19T14:42:19.604Z,8
2017-12-19T14:43:27.691Z,8
2017-12-19T14:44:35.774Z,8
2017-12-19T14:45:43.864Z,8
2017-12-19T14:46:51.945Z,8
2017-12-19T14:48:00.030Z,4
2017-12-19T14:49:08.111Z,8
2017-12-19T14:50:16.202Z,8
2017-12-19T14:51:24.281Z,4
2017-12-19T14:52:32.377Z,4
2017-12-19T14:53:40.471Z,4
2017-12-19T14:54:48.555Z,8
2017-12-19T14:55:56.637Z,4
2017-12-19T14:57:04.721Z,4
2017-12-19T14:58:12.816Z,4
2017-12-19T14:59:20.949Z,4
2017-12-19T15:00:28.977Z,4
2017-12-19T15:01:37.061Z,4
2017-12-19T15:02:45.146Z,4
2017-12-19T15:03:53.254Z,4
2017-12-19T15:05:01.334Z,4
2017-12-19T15:06:09.428Z,4
2017-12-19T15:07:17.512Z,4
2017-12-19T15:08:25.596Z,4
2017-12-19T15:09:33.682Z,0
2017-12-19T15:10:41.767Z,4
2017-12-19T15:11:49.850Z,4
2017-12-19T15:12:57.935Z,4
2017-12-19T15:14:06.019Z,4
2017-12-19T15:15:14.104Z,4
2017-12-19T15:16:22.193Z,4
2017-12-19T15:17:30.274Z,0
2017-12-19T15:18:38.379Z,0
2017-12-19T15:19:46.440Z,0
2017-12-19T15:20:54.526Z,0
2017-12-19T15:22:02.610Z,4
2017-12-19T15:23:10.695Z,4
2017-12-19T15:24:18.780Z,4
2017-12-19T15:25:26.864Z,4
2017-12-19T15:26:34.949Z,0
2017-12-19T15:27:43.031Z,0
2017-12-19T15:28:51.119Z,0
2017-12-19T15:29:59.258Z,0
2017-12-19T15:31:07.284Z,0
2017-12-19T15:32:15.369Z,0
2017-12-19T15:33:23.457Z,0
2017-12-19T15:34:31.544Z,0
2017-12-19T15:35:39.623Z,0
2017-12-19T15:36:47.708Z,0
2017-12-19T15:37:55.792Z,0
2017-12-19T15:39:03.874Z,0
2017-12-19T15:40:11.964Z,0
2017-12-19T15:41:20.050Z,0
2017-12-19T15:42:28.133Z,0
2017-12-19T15:43:36.234Z,0
2017-12-19T15:44:44.313Z,0
2017-12-19T15:45:52.386Z,0
2017-12-19T15:47:00.477Z,0
2017-12-19T15:48:08.564Z,0
2017-12-19T15:49:16.638Z,0
2017-12-19T15:50:24.723Z,0
2017-12-19T15:51:32.811Z,0
2017-12-19T15:52:40.895Z,0
2017-12-19T15:53:48.978Z,0
2017-12-19T15:54:57.063Z,0
2017-12-19T15:56:05.155Z,0
2017-12-19T15:57:13.259Z,0
2017-12-19T15:58:21.347Z,0
2017-12-19T15:59:29.427Z,0
2017-12-19T16:00:37.512Z,0
2017-12-19T16:01:45.593Z,0
2017-12-19T16:02:53.679Z,0
2017-12-19T16:04:01.800Z,0
2017-12-19T16:05:09.886Z,0
2017-12-19T16:06:17.969Z,0
2017-12-19T16:07:26.057Z,0
2017-12-19T16:08:34.148Z,0
2017-12-19T16:09:42.224Z,0
2017-12-19T16:10:50.315Z,0
2017-12-19T16:11:58.393Z,0
2017-12-19T16:13:06.478Z,0
2017-12-19T16:14:14.562Z,0
2017-12-19T16:15:22.645Z,0
2017-12-19T16:16:30.738Z,0
2017-12-19T16:17:38.823Z,0
2017-12-19T16:18:46.907Z,0
2017-12-19T16:19:54.991Z,0
2017-12-19T16:21:03.081Z,0
2017-12-19T16:22:11.160Z,0
2017-12-19T16:23:19.250Z,0
2017-12-19T16:24:27.327Z,0
2017-12-19T16:25:35.418Z,0
2017-12-19T16:26:43.498Z,0
2017-12-19T16:27:51.584Z,0
2017-12-19T16:28:59.667Z,0
2017-12-19T16:30:07.751Z,0
2017-12-19T16:31:15.835Z,0
2017-12-19T16:32:23.922Z,0
2017-12-19T16:33:32.002Z,0